VIAR/ATQ METAR and TAF weather

Enter ICAO airport designator
Station Type Date Time Source
VIAR METAR 2022/06/30 02:00 UTC NOAA

VIAR 300200Z 11010KT 3000 BR SCT030 BKN090 29/29 Q0996 NOSIG


Station Type Date Time Source
VIAR Decoded METAR 2022/06/30 02:00 UTC NOAA

Amritsar, India (VIAR) 31-38N 074-52E 234M
Jun 29, 2022 - 10:00 PM EDT / 2022.06.30 0200 UTC
Wind: from the ESE (110 degrees) at 12 MPH (10 KT):0
Visibility: 1 mile(s):0
Sky conditions: mostly cloudy
Weather: mist
Temperature: 84 F (29 C)
Dew Point: 84 F (29 C)
Relative Humidity: 100%
Pressure (altimeter): 29.41 in. Hg (0996 hPa)
ob: VIAR 300200Z 11010KT 3000 BR SCT030 BKN090 29/29 Q0996 NOSIG
cycle: 2

Station Type Date Time Source
VIAR TAF 2022/06/29 18:15 UTC NOAA

TAF TAF VIAR 291700Z 2918/3024 14010KT 2800 HZ FEW030 SCT090
BECMG 3005/3007 14008G18KT 3500 HZ SCT030 BKN090
BECMG 3012/3014 14008KT 2800 HZ FEW035 SCT100
TEMPO 3016/3020 15010G20KT 1500 TSRA SCT030 FEW035CB OVC080

Example: see airport list